sensor_id;sensor_type;location;lat;lon;timestamp;P1;durP1;ratioP1;P2;durP2;ratioP2
78290;SDS011;67543;45.494;9.100;2023-04-15T05:54:22;6.10;;;3.53;;
78290;SDS011;67543;45.494;9.100;2023-04-15T05:56:48;7.70;;;2.90;;
78290;SDS011;67543;45.494;9.100;2023-04-15T05:59:13;7.40;;;3.67;;
78290;SDS011;67543;45.494;9.100;2023-04-15T06:01:39;5.65;;;3.05;;
78290;SDS011;67543;45.494;9.100;2023-04-15T06:04:04;9.95;;;4.32;;
78290;SDS011;67543;45.494;9.100;2023-04-15T06:06:31;9.23;;;4.93;;
78290;SDS011;67543;45.494;9.100;2023-04-15T06:08:56;9.93;;;4.18;;
78290;SDS011;67543;45.494;9.100;2023-04-15T06:11:22;7.05;;;3.83;;
78290;SDS011;67543;45.494;9.100;2023-04-15T06:13:47;7.25;;;4.05;;
78290;SDS011;67543;45.494;9.100;2023-04-15T06:16:13;7.07;;;3.80;;
78290;SDS011;67543;45.494;9.100;2023-04-15T06:18:38;7.65;;;3.90;;
78290;SDS011;67543;45.494;9.100;2023-04-15T06:21:04;7.65;;;4.15;;
78290;SDS011;67543;45.494;9.100;2023-04-15T06:23:29;8.00;;;4.45;;
78290;SDS011;67543;45.494;9.100;2023-04-15T06:25:55;6.70;;;3.83;;
78290;SDS011;67543;45.494;9.100;2023-04-15T06:28:21;7.20;;;3.75;;
78290;SDS011;67543;45.494;9.100;2023-04-15T06:30:46;7.18;;;3.55;;
78290;SDS011;67543;45.494;9.100;2023-04-15T06:33:12;11.02;;;3.33;;
78290;SDS011;67543;45.494;9.100;2023-04-15T06:35:37;6.38;;;3.85;;
78290;SDS011;67543;45.494;9.100;2023-04-15T06:38:03;10.38;;;3.85;;
78290;SDS011;67543;45.494;9.100;2023-04-15T06:40:28;9.25;;;4.72;;
78290;SDS011;67543;45.494;9.100;2023-04-15T06:42:54;8.70;;;4.25;;
78290;SDS011;67543;45.494;9.100;2023-04-15T06:45:22;6.63;;;3.35;;
78290;SDS011;67543;45.494;9.100;2023-04-15T06:47:47;8.82;;;3.80;;
78290;SDS011;67543;45.494;9.100;2023-04-15T06:50:13;6.00;;;4.03;;
78290;SDS011;67543;45.494;9.100;2023-04-15T06:52:38;5.63;;;3.50;;
78290;SDS011;67543;45.494;9.100;2023-04-15T06:55:05;5.45;;;3.35;;
78290;SDS011;67543;45.494;9.100;2023-04-15T06:57:31;7.13;;;3.40;;
78290;SDS011;67543;45.494;9.100;2023-04-15T06:59:56;8.00;;;3.28;;
78290;SDS011;67543;45.494;9.100;2023-04-15T07:02:21;5.68;;;3.08;;
78290;SDS011;67543;45.494;9.100;2023-04-15T07:04:47;7.20;;;3.00;;
78290;SDS011;67543;45.494;9.100;2023-04-15T07:07:12;4.03;;;2.47;;
78290;SDS011;67543;45.494;9.100;2023-04-15T07:09:39;5.50;;;2.60;;
78290;SDS011;67543;45.494;9.100;2023-04-15T07:12:04;5.55;;;2.05;;
78290;SDS011;67543;45.494;9.100;2023-04-15T07:14:30;4.97;;;3.05;;
78290;SDS011;67543;45.494;9.100;2023-04-15T07:16:55;4.80;;;3.13;;
78290;SDS011;67543;45.494;9.100;2023-04-15T07:19:21;5.53;;;3.20;;
78290;SDS011;67543;45.494;9.100;2023-04-15T07:21:47;7.10;;;4.03;;
78290;SDS011;67543;45.494;9.100;2023-04-15T07:24:13;6.80;;;3.30;;
78290;SDS011;67543;45.494;9.100;2023-04-15T07:26:42;5.55;;;4.20;;
78290;SDS011;67543;45.494;9.100;2023-04-15T07:29:08;8.52;;;3.70;;
78290;SDS011;67543;45.494;9.100;2023-04-15T07:31:33;7.68;;;4.35;;
78290;SDS011;67543;45.494;9.100;2023-04-15T07:34:00;7.80;;;4.00;;
78290;SDS011;67543;45.494;9.100;2023-04-15T07:36:26;5.50;;;3.83;;
78290;SDS011;67543;45.494;9.100;2023-04-15T07:38:53;10.52;;;4.45;;
78290;SDS011;67543;45.494;9.100;2023-04-15T07:41:19;9.82;;;3.58;;
78290;SDS011;67543;45.494;9.100;2023-04-15T07:43:45;4.65;;;3.45;;
78290;SDS011;67543;45.494;9.100;2023-04-15T07:46:10;5.45;;;3.95;;
78290;SDS011;67543;45.494;9.100;2023-04-15T07:48:36;5.97;;;3.45;;
78290;SDS011;67543;45.494;9.100;2023-04-15T07:51:01;4.60;;;3.53;;
78290;SDS011;67543;45.494;9.100;2023-04-15T07:53:27;4.55;;;3.13;;
78290;SDS011;67543;45.494;9.100;2023-04-15T07:55:53;5.88;;;3.50;;
78290;SDS011;67543;45.494;9.100;2023-04-15T07:58:18;4.18;;;3.15;;
78290;SDS011;67543;45.494;9.100;2023-04-15T08:00:43;5.13;;;3.33;;
78290;SDS011;67543;45.494;9.100;2023-04-15T08:03:09;6.28;;;3.50;;
78290;SDS011;67543;45.494;9.100;2023-04-15T08:05:35;4.55;;;3.40;;
78290;SDS011;67543;45.494;9.100;2023-04-15T08:08:00;7.33;;;3.27;;
78290;SDS011;67543;45.494;9.100;2023-04-15T08:10:27;5.15;;;3.40;;
78290;SDS011;67543;45.494;9.100;2023-04-15T08:12:53;6.75;;;3.40;;
78290;SDS011;67543;45.494;9.100;2023-04-15T08:15:19;6.57;;;3.05;;
78290;SDS011;67543;45.494;9.100;2023-04-15T08:17:45;6.30;;;3.40;;
78290;SDS011;67543;45.494;9.100;2023-04-15T08:20:11;6.78;;;3.22;;
78290;SDS011;67543;45.494;9.100;2023-04-15T08:22:37;4.70;;;2.75;;
78290;SDS011;67543;45.494;9.100;2023-04-15T08:25:03;4.50;;;2.78;;
78290;SDS011;67543;45.494;9.100;2023-04-15T08:27:28;7.43;;;2.95;;
78290;SDS011;67543;45.494;9.100;2023-04-15T08:29:54;4.45;;;3.33;;
78290;SDS011;67543;45.494;9.100;2023-04-15T08:32:19;5.15;;;3.20;;
78290;SDS011;67543;45.494;9.100;2023-04-15T08:34:45;6.32;;;3.72;;
78290;SDS011;67543;45.494;9.100;2023-04-15T08:37:10;7.32;;;3.35;;
78290;SDS011;67543;45.494;9.100;2023-04-15T08:39:35;6.22;;;3.58;;
78290;SDS011;67543;45.494;9.100;2023-04-15T08:42:02;9.30;;;4.40;;
78290;SDS011;67543;45.494;9.100;2023-04-15T08:44:32;7.07;;;3.13;;
78290;SDS011;67543;45.494;9.100;2023-04-15T08:47:00;5.20;;;3.22;;
78290;SDS011;67543;45.494;9.100;2023-04-15T08:49:26;10.23;;;3.90;;
78290;SDS011;67543;45.494;9.100;2023-04-15T08:51:52;6.85;;;3.30;;
78290;SDS011;67543;45.494;9.100;2023-04-15T08:54:20;5.22;;;3.13;;
78290;SDS011;67543;45.494;9.100;2023-04-15T08:56:46;5.75;;;3.28;;
78290;SDS011;67543;45.494;9.100;2023-04-15T08:59:12;7.85;;;3.28;;
78290;SDS011;67543;45.494;9.100;2023-04-15T09:01:39;8.90;;;4.00;;
78290;SDS011;67543;45.494;9.100;2023-04-15T09:04:04;5.13;;;3.65;;
78290;SDS011;67543;45.494;9.100;2023-04-15T09:06:31;6.30;;;3.47;;
78290;SDS011;67543;45.494;9.100;2023-04-15T09:08:57;4.70;;;3.80;;
78290;SDS011;67543;45.494;9.100;2023-04-15T09:11:22;5.13;;;3.58;;
78290;SDS011;67543;45.494;9.100;2023-04-15T09:13:48;6.53;;;3.10;;
78290;SDS011;67543;45.494;9.100;2023-04-15T09:16:14;5.30;;;3.67;;
78290;SDS011;67543;45.494;9.100;2023-04-15T09:18:39;5.85;;;3.80;;
78290;SDS011;67543;45.494;9.100;2023-04-15T09:21:05;6.55;;;3.40;;
78290;SDS011;67543;45.494;9.100;2023-04-15T09:23:33;6.63;;;3.60;;
78290;SDS011;67543;45.494;9.100;2023-04-15T09:26:00;5.65;;;2.75;;
78290;SDS011;67543;45.494;9.100;2023-04-15T09:28:26;4.65;;;2.45;;
78290;SDS011;67543;45.494;9.100;2023-04-15T09:30:58;4.90;;;3.40;;
78290;SDS011;67543;45.494;9.100;2023-04-15T09:33:26;6.90;;;3.60;;
78290;SDS011;67543;45.494;9.100;2023-04-15T09:35:55;6.75;;;2.95;;
78290;SDS011;67543;45.494;9.100;2023-04-15T09:38:22;6.72;;;3.40;;
78290;SDS011;67543;45.494;9.100;2023-04-15T09:40:47;6.03;;;2.97;;
78290;SDS011;67543;45.494;9.100;2023-04-15T09:43:12;7.20;;;3.43;;
78290;SDS011;67543;45.494;9.100;2023-04-15T09:45:38;7.63;;;3.42;;
78290;SDS011;67543;45.494;9.100;2023-04-15T09:48:16;5.10;;;2.67;;
78290;SDS011;67543;45.494;9.100;2023-04-15T09:50:48;7.32;;;3.30;;
78290;SDS011;67543;45.494;9.100;2023-04-15T09:53:15;5.28;;;3.10;;
78290;SDS011;67543;45.494;9.100;2023-04-15T09:55:55;5.47;;;2.70;;
78290;SDS011;67543;45.494;9.100;2023-04-15T09:58:26;4.80;;;3.20;;
78290;SDS011;67543;45.494;9.100;2023-04-15T10:00:53;6.82;;;2.60;;
78290;SDS011;67543;45.494;9.100;2023-04-15T10:05:49;8.47;;;2.90;;
78290;SDS011;67543;45.494;9.100;2023-04-15T10:08:20;6.75;;;2.80;;
78290;SDS011;67543;45.494;9.100;2023-04-15T10:10:47;6.78;;;2.92;;
78290;SDS011;67543;45.494;9.100;2023-04-15T10:13:19;8.55;;;2.38;;
78290;SDS011;67543;45.494;9.100;2023-04-15T10:15:51;9.35;;;2.85;;
78290;SDS011;67543;45.494;9.100;2023-04-15T10:18:20;9.25;;;2.75;;
78290;SDS011;67543;45.494;9.100;2023-04-15T10:20:48;6.78;;;2.90;;
78290;SDS011;67543;45.494;9.100;2023-04-15T10:23:14;5.25;;;2.22;;
78290;SDS011;67543;45.494;9.100;2023-04-15T10:25:39;7.90;;;2.88;;
78290;SDS011;67543;45.494;9.100;2023-04-15T10:28:06;7.55;;;2.85;;
78290;SDS011;67543;45.494;9.100;2023-04-15T10:30:32;10.73;;;3.00;;
78290;SDS011;67543;45.494;9.100;2023-04-15T10:32:59;5.78;;;2.70;;
78290;SDS011;67543;45.494;9.100;2023-04-15T10:35:25;5.70;;;2.60;;
78290;SDS011;67543;45.494;9.100;2023-04-15T10:37:50;8.55;;;2.30;;
78290;SDS011;67543;45.494;9.100;2023-04-15T10:40:23;4.63;;;2.10;;
78290;SDS011;67543;45.494;9.100;2023-04-15T10:42:49;3.75;;;2.42;;
78290;SDS011;67543;45.494;9.100;2023-04-15T10:45:15;5.30;;;2.20;;
78290;SDS011;67543;45.494;9.100;2023-04-15T10:47:41;8.93;;;2.42;;
78290;SDS011;67543;45.494;9.100;2023-04-15T10:50:07;7.40;;;2.22;;
78290;SDS011;67543;45.494;9.100;2023-04-15T10:52:33;7.28;;;2.20;;
78290;SDS011;67543;45.494;9.100;2023-04-15T10:57:38;3.10;;;1.80;;
78290;SDS011;67543;45.494;9.100;2023-04-15T11:02:46;5.13;;;2.28;;
78290;SDS011;67543;45.494;9.100;2023-04-15T11:05:16;6.65;;;2.20;;
78290;SDS011;67543;45.494;9.100;2023-04-15T11:12:57;7.75;;;2.80;;
78290;SDS011;67543;45.494;9.100;2023-04-15T11:20:40;4.75;;;2.15;;
78290;SDS011;67543;45.494;9.100;2023-04-15T11:23:07;4.55;;;1.98;;
78290;SDS011;67543;45.494;9.100;2023-04-15T11:25:33;4.47;;;2.35;;
78290;SDS011;67543;45.494;9.100;2023-04-15T11:28:00;5.50;;;2.67;;
78290;SDS011;67543;45.494;9.100;2023-04-15T11:30:27;6.70;;;2.38;;
78290;SDS011;67543;45.494;9.100;2023-04-15T11:32:58;4.68;;;2.60;;
78290;SDS011;67543;45.494;9.100;2023-04-15T11:35:28;5.18;;;2.65;;
78290;SDS011;67543;45.494;9.100;2023-04-15T11:37:53;6.95;;;2.95;;
78290;SDS011;67543;45.494;9.100;2023-04-15T11:40:23;4.40;;;2.60;;
78290;SDS011;67543;45.494;9.100;2023-04-15T11:43:09;6.28;;;3.05;;
78290;SDS011;67543;45.494;9.100;2023-04-15T11:45:36;6.00;;;3.15;;
78290;SDS011;67543;45.494;9.100;2023-04-15T11:48:06;4.47;;;2.80;;
78290;SDS011;67543;45.494;9.100;2023-04-15T11:50:37;5.10;;;2.28;;
78290;SDS011;67543;45.494;9.100;2023-04-15T11:53:04;5.15;;;2.60;;
78290;SDS011;67543;45.494;9.100;2023-04-15T11:55:30;6.38;;;4.13;;
78290;SDS011;67543;45.494;9.100;2023-04-15T11:58:10;7.93;;;2.63;;
78290;SDS011;67543;45.494;9.100;2023-04-15T12:00:38;5.78;;;2.30;;
78290;SDS011;67543;45.494;9.100;2023-04-15T12:03:10;7.75;;;2.70;;
78290;SDS011;67543;45.494;9.100;2023-04-15T12:05:44;8.32;;;2.38;;
78290;SDS011;67543;45.494;9.100;2023-04-15T12:14:05;3.50;;;2.08;;
78290;SDS011;67543;45.494;9.100;2023-04-15T12:16:39;6.53;;;2.15;;
78290;SDS011;67543;45.494;9.100;2023-04-15T12:19:13;5.63;;;1.33;;
78290;SDS011;67543;45.494;9.100;2023-04-15T12:21:43;4.13;;;1.60;;
78290;SDS011;67543;45.494;9.100;2023-04-15T12:24:10;5.03;;;1.52;;
78290;SDS011;67543;45.494;9.100;2023-04-15T12:26:43;4.80;;;1.80;;
78290;SDS011;67543;45.494;9.100;2023-04-15T12:29:09;5.75;;;1.73;;
78290;SDS011;67543;45.494;9.100;2023-04-15T12:31:35;5.15;;;2.00;;
78290;SDS011;67543;45.494;9.100;2023-04-15T12:34:01;2.60;;;1.20;;
78290;SDS011;67543;45.494;9.100;2023-04-15T12:36:29;2.60;;;1.02;;
78290;SDS011;67543;45.494;9.100;2023-04-15T12:39:00;5.72;;;1.70;;
78290;SDS011;67543;45.494;9.100;2023-04-15T12:41:25;4.00;;;1.50;;
78290;SDS011;67543;45.494;9.100;2023-04-15T12:43:51;5.33;;;1.50;;
78290;SDS011;67543;45.494;9.100;2023-04-15T12:46:16;6.05;;;1.45;;
78290;SDS011;67543;45.494;9.100;2023-04-15T12:48:41;3.78;;;2.10;;
78290;SDS011;67543;45.494;9.100;2023-04-15T12:51:07;4.65;;;1.83;;
78290;SDS011;67543;45.494;9.100;2023-04-15T12:53:32;5.05;;;1.95;;
78290;SDS011;67543;45.494;9.100;2023-04-15T12:55:58;3.30;;;1.75;;
78290;SDS011;67543;45.494;9.100;2023-04-15T12:58:23;4.68;;;1.92;;
78290;SDS011;67543;45.494;9.100;2023-04-15T13:00:49;4.30;;;1.63;;
78290;SDS011;67543;45.494;9.100;2023-04-15T13:03:14;4.80;;;1.90;;
78290;SDS011;67543;45.494;9.100;2023-04-15T13:05:40;7.38;;;2.25;;
78290;SDS011;67543;45.494;9.100;2023-04-15T13:08:05;6.95;;;2.33;;
78290;SDS011;67543;45.494;9.100;2023-04-15T13:10:31;5.15;;;1.83;;
78290;SDS011;67543;45.494;9.100;2023-04-15T13:12:57;5.00;;;2.08;;
78290;SDS011;67543;45.494;9.100;2023-04-15T13:15:22;4.63;;;2.35;;
78290;SDS011;67543;45.494;9.100;2023-04-15T13:17:48;5.72;;;2.25;;
78290;SDS011;67543;45.494;9.100;2023-04-15T13:20:13;4.90;;;1.60;;
78290;SDS011;67543;45.494;9.100;2023-04-15T13:22:39;3.70;;;1.60;;
78290;SDS011;67543;45.494;9.100;2023-04-15T13:25:05;4.53;;;1.30;;
78290;SDS011;67543;45.494;9.100;2023-04-15T13:27:31;3.15;;;1.13;;
78290;SDS011;67543;45.494;9.100;2023-04-15T13:29:57;4.53;;;1.63;;
78290;SDS011;67543;45.494;9.100;2023-04-15T13:32:23;4.60;;;1.95;;
78290;SDS011;67543;45.494;9.100;2023-04-15T13:34:48;3.40;;;1.50;;
78290;SDS011;67543;45.494;9.100;2023-04-15T13:37:14;3.58;;;1.40;;
78290;SDS011;67543;45.494;9.100;2023-04-15T13:39:39;3.08;;;1.15;;
78290;SDS011;67543;45.494;9.100;2023-04-15T13:42:05;4.40;;;2.00;;
78290;SDS011;67543;45.494;9.100;2023-04-15T13:44:30;4.05;;;1.67;;
78290;SDS011;67543;45.494;9.100;2023-04-15T13:46:55;4.55;;;1.40;;
78290;SDS011;67543;45.494;9.100;2023-04-15T13:49:21;4.20;;;1.67;;
78290;SDS011;67543;45.494;9.100;2023-04-15T13:51:46;4.22;;;1.55;;
78290;SDS011;67543;45.494;9.100;2023-04-15T13:54:11;7.30;;;1.40;;
78290;SDS011;67543;45.494;9.100;2023-04-15T13:56:37;3.23;;;1.33;;
78290;SDS011;67543;45.494;9.100;2023-04-15T13:59:03;3.75;;;1.33;;
78290;SDS011;67543;45.494;9.100;2023-04-15T14:01:28;5.65;;;1.30;;
78290;SDS011;67543;45.494;9.100;2023-04-15T14:03:54;3.05;;;0.95;;
78290;SDS011;67543;45.494;9.100;2023-04-15T14:06:19;2.35;;;1.13;;
78290;SDS011;67543;45.494;9.100;2023-04-15T14:08:45;5.40;;;1.38;;
78290;SDS011;67543;45.494;9.100;2023-04-15T14:11:10;2.97;;;1.10;;
78290;SDS011;67543;45.494;9.100;2023-04-15T14:13:36;6.03;;;2.28;;
78290;SDS011;67543;45.494;9.100;2023-04-15T14:16:01;3.25;;;1.70;;
78290;SDS011;67543;45.494;9.100;2023-04-15T14:18:27;3.85;;;1.20;;
78290;SDS011;67543;45.494;9.100;2023-04-15T14:20:54;3.63;;;1.30;;
78290;SDS011;67543;45.494;9.100;2023-04-15T14:23:19;2.03;;;1.00;;
78290;SDS011;67543;45.494;9.100;2023-04-15T14:25:46;3.65;;;1.45;;
78290;SDS011;67543;45.494;9.100;2023-04-15T14:28:12;3.92;;;1.08;;
78290;SDS011;67543;45.494;9.100;2023-04-15T14:30:38;3.13;;;1.10;;
78290;SDS011;67543;45.494;9.100;2023-04-15T14:33:04;2.80;;;1.00;;
78290;SDS011;67543;45.494;9.100;2023-04-15T14:35:30;3.72;;;1.25;;
78290;SDS011;67543;45.494;9.100;2023-04-15T14:37:57;2.15;;;1.23;;
78290;SDS011;67543;45.494;9.100;2023-04-15T14:40:23;6.15;;;1.60;;
78290;SDS011;67543;45.494;9.100;2023-04-15T14:42:48;6.00;;;1.67;;
78290;SDS011;67543;45.494;9.100;2023-04-15T14:45:14;3.72;;;1.20;;
78290;SDS011;67543;45.494;9.100;2023-04-15T14:47:39;5.00;;;1.50;;
78290;SDS011;67543;45.494;9.100;2023-04-15T14:50:04;3.42;;;1.55;;
78290;SDS011;67543;45.494;9.100;2023-04-15T14:52:30;3.97;;;1.30;;
78290;SDS011;67543;45.494;9.100;2023-04-15T14:55:06;2.35;;;1.27;;
78290;SDS011;67543;45.494;9.100;2023-04-15T14:57:32;5.68;;;1.35;;
78290;SDS011;67543;45.494;9.100;2023-04-15T14:59:58;3.85;;;1.55;;
78290;SDS011;67543;45.494;9.100;2023-04-15T15:02:23;3.30;;;1.30;;
78290;SDS011;67543;45.494;9.100;2023-04-15T15:04:49;3.78;;;1.48;;
78290;SDS011;67543;45.494;9.100;2023-04-15T15:07:14;3.30;;;1.38;;
78290;SDS011;67543;45.494;9.100;2023-04-15T15:09:40;6.38;;;1.20;;
78290;SDS011;67543;45.494;9.100;2023-04-15T15:12:05;5.55;;;1.27;;
78290;SDS011;67543;45.494;9.100;2023-04-15T15:14:31;8.77;;;1.30;;
78290;SDS011;67543;45.494;9.100;2023-04-15T15:16:56;5.22;;;1.40;;
78290;SDS011;67543;45.494;9.100;2023-04-15T15:19:22;5.35;;;1.13;;
78290;SDS011;67543;45.494;9.100;2023-04-15T15:21:48;1.77;;;1.00;;
78290;SDS011;67543;45.494;9.100;2023-04-15T15:24:14;4.20;;;1.20;;
78290;SDS011;67543;45.494;9.100;2023-04-15T15:26:39;9.82;;;2.15;;
78290;SDS011;67543;45.494;9.100;2023-04-15T15:29:05;4.28;;;1.10;;
78290;SDS011;67543;45.494;9.100;2023-04-15T15:31:30;4.47;;;1.25;;
78290;SDS011;67543;45.494;9.100;2023-04-15T15:33:58;4.65;;;1.45;;
78290;SDS011;67543;45.494;9.100;2023-04-15T15:36:23;4.50;;;1.23;;
78290;SDS011;67543;45.494;9.100;2023-04-15T15:38:48;4.95;;;1.40;;
78290;SDS011;67543;45.494;9.100;2023-04-15T15:41:14;5.70;;;1.40;;
78290;SDS011;67543;45.494;9.100;2023-04-15T15:43:39;4.93;;;1.30;;
78290;SDS011;67543;45.494;9.100;2023-04-15T15:46:05;3.33;;;1.13;;
78290;SDS011;67543;45.494;9.100;2023-04-15T15:48:30;4.90;;;1.55;;
78290;SDS011;67543;45.494;9.100;2023-04-15T15:50:56;2.58;;;0.93;;
78290;SDS011;67543;45.494;9.100;2023-04-15T15:53:21;3.67;;;1.20;;
78290;SDS011;67543;45.494;9.100;2023-04-15T15:55:48;5.35;;;1.42;;
78290;SDS011;67543;45.494;9.100;2023-04-15T15:58:13;3.47;;;1.30;;
78290;SDS011;67543;45.494;9.100;2023-04-15T16:00:39;3.05;;;1.52;;
78290;SDS011;67543;45.494;9.100;2023-04-15T16:03:05;4.95;;;1.52;;
78290;SDS011;67543;45.494;9.100;2023-04-15T16:05:30;6.68;;;1.35;;
78290;SDS011;67543;45.494;9.100;2023-04-15T16:07:55;2.45;;;1.10;;
78290;SDS011;67543;45.494;9.100;2023-04-15T16:10:21;4.13;;;1.42;;
78290;SDS011;67543;45.494;9.100;2023-04-15T16:12:46;4.50;;;1.30;;
78290;SDS011;67543;45.494;9.100;2023-04-15T16:15:12;7.97;;;1.98;;
78290;SDS011;67543;45.494;9.100;2023-04-15T16:17:37;3.83;;;1.30;;
78290;SDS011;67543;45.494;9.100;2023-04-15T16:20:03;3.33;;;1.23;;
78290;SDS011;67543;45.494;9.100;2023-04-15T16:22:29;2.90;;;1.23;;
78290;SDS011;67543;45.494;9.100;2023-04-15T16:24:55;3.30;;;1.13;;
78290;SDS011;67543;45.494;9.100;2023-04-15T16:27:21;3.15;;;1.30;;
78290;SDS011;67543;45.494;9.100;2023-04-15T16:29:46;4.30;;;1.10;;
78290;SDS011;67543;45.494;9.100;2023-04-15T16:32:11;3.90;;;1.45;;
78290;SDS011;67543;45.494;9.100;2023-04-15T16:34:37;5.05;;;1.10;;
78290;SDS011;67543;45.494;9.100;2023-04-15T16:37:04;4.20;;;1.25;;
78290;SDS011;67543;45.494;9.100;2023-04-15T16:39:30;3.80;;;1.20;;
78290;SDS011;67543;45.494;9.100;2023-04-15T16:41:55;7.30;;;1.65;;
78290;SDS011;67543;45.494;9.100;2023-04-15T16:44:21;4.15;;;1.65;;
78290;SDS011;67543;45.494;9.100;2023-04-15T16:46:47;3.03;;;1.00;;
78290;SDS011;67543;45.494;9.100;2023-04-15T16:49:12;2.75;;;1.35;;
78290;SDS011;67543;45.494;9.100;2023-04-15T16:51:37;3.33;;;1.02;;
78290;SDS011;67543;45.494;9.100;2023-04-15T16:54:03;4.10;;;1.02;;
78290;SDS011;67543;45.494;9.100;2023-04-15T16:56:28;3.67;;;1.10;;
78290;SDS011;67543;45.494;9.100;2023-04-15T16:58:54;3.70;;;1.20;;
78290;SDS011;67543;45.494;9.100;2023-04-15T17:01:19;5.57;;;1.52;;
78290;SDS011;67543;45.494;9.100;2023-04-15T17:03:45;6.45;;;2.90;;
78290;SDS011;67543;45.494;9.100;2023-04-15T17:06:12;5.05;;;3.08;;
78290;SDS011;67543;45.494;9.100;2023-04-15T17:08:38;6.50;;;2.50;;
78290;SDS011;67543;45.494;9.100;2023-04-15T17:11:04;5.75;;;3.38;;
78290;SDS011;67543;45.494;9.100;2023-04-15T17:13:30;11.20;;;4.32;;
78290;SDS011;67543;45.494;9.100;2023-04-15T17:15:55;9.60;;;4.05;;
78290;SDS011;67543;45.494;9.100;2023-04-15T17:18:21;8.32;;;4.03;;
78290;SDS011;67543;45.494;9.100;2023-04-15T17:20:46;7.03;;;4.20;;
78290;SDS011;67543;45.494;9.100;2023-04-15T17:23:16;9.25;;;4.55;;
78290;SDS011;67543;45.494;9.100;2023-04-15T17:25:42;8.20;;;4.22;;
78290;SDS011;67543;45.494;9.100;2023-04-15T17:28:07;10.00;;;4.43;;
78290;SDS011;67543;45.494;9.100;2023-04-15T17:30:33;9.68;;;4.10;;
78290;SDS011;67543;45.494;9.100;2023-04-15T17:32:58;7.80;;;4.38;;
78290;SDS011;67543;45.494;9.100;2023-04-15T17:35:23;6.43;;;3.90;;
78290;SDS011;67543;45.494;9.100;2023-04-15T17:37:50;7.85;;;4.03;;
78290;SDS011;67543;45.494;9.100;2023-04-15T17:40:15;6.55;;;4.38;;
78290;SDS011;67543;45.494;9.100;2023-04-15T17:42:41;7.43;;;4.35;;
78290;SDS011;67543;45.494;9.100;2023-04-15T17:45:06;7.28;;;4.40;;
78290;SDS011;67543;45.494;9.100;2023-04-15T17:47:32;7.38;;;4.22;;
78290;SDS011;67543;45.494;9.100;2023-04-15T17:49:58;9.55;;;4.30;;
78290;SDS011;67543;45.494;9.100;2023-04-15T17:52:23;8.30;;;4.50;;
78290;SDS011;67543;45.494;9.100;2023-04-15T17:54:50;8.35;;;4.05;;
78290;SDS011;67543;45.494;9.100;2023-04-15T17:57:17;10.90;;;5.45;;
78290;SDS011;67543;45.494;9.100;2023-04-15T17:59:42;11.98;;;4.63;;
78290;SDS011;67543;45.494;9.100;2023-04-15T18:02:10;8.43;;;5.15;;
78290;SDS011;67543;45.494;9.100;2023-04-15T18:04:36;9.00;;;4.75;;
78290;SDS011;67543;45.494;9.100;2023-04-15T18:07:01;7.22;;;4.55;;
78290;SDS011;67543;45.494;9.100;2023-04-15T18:09:27;10.05;;;5.40;;
78290;SDS011;67543;45.494;9.100;2023-04-15T18:11:52;12.82;;;5.57;;
78290;SDS011;67543;45.494;9.100;2023-04-15T18:14:17;9.48;;;4.93;;
78290;SDS011;67543;45.494;9.100;2023-04-15T18:16:43;7.00;;;4.25;;
78290;SDS011;67543;45.494;9.100;2023-04-15T18:19:08;10.25;;;5.57;;
78290;SDS011;67543;45.494;9.100;2023-04-15T18:21:34;10.45;;;5.28;;
78290;SDS011;67543;45.494;9.100;2023-04-15T18:23:59;6.35;;;4.05;;
78290;SDS011;67543;45.494;9.100;2023-04-15T18:26:26;7.47;;;4.63;;
78290;SDS011;67543;45.494;9.100;2023-04-15T18:28:51;7.05;;;3.08;;
78290;SDS011;67543;45.494;9.100;2023-04-15T18:31:17;6.43;;;3.75;;
78290;SDS011;67543;45.494;9.100;2023-04-15T18:33:42;5.67;;;3.13;;
78290;SDS011;67543;45.494;9.100;2023-04-15T18:36:08;4.47;;;2.72;;
78290;SDS011;67543;45.494;9.100;2023-04-15T18:38:34;6.95;;;3.47;;
78290;SDS011;67543;45.494;9.100;2023-04-15T18:40:59;6.38;;;3.72;;
78290;SDS011;67543;45.494;9.100;2023-04-15T18:43:25;7.05;;;3.88;;
78290;SDS011;67543;45.494;9.100;2023-04-15T18:45:51;6.63;;;3.00;;
78290;SDS011;67543;45.494;9.100;2023-04-15T18:48:18;6.80;;;3.58;;
78290;SDS011;67543;45.494;9.100;2023-04-15T18:50:43;6.50;;;3.38;;
78290;SDS011;67543;45.494;9.100;2023-04-15T18:53:10;7.60;;;3.92;;
78290;SDS011;67543;45.494;9.100;2023-04-15T18:55:36;6.35;;;3.03;;
78290;SDS011;67543;45.494;9.100;2023-04-15T18:58:02;7.15;;;2.95;;
78290;SDS011;67543;45.494;9.100;2023-04-15T19:00:28;6.53;;;2.85;;
78290;SDS011;67543;45.494;9.100;2023-04-15T19:02:55;4.55;;;2.83;;
78290;SDS011;67543;45.494;9.100;2023-04-15T19:05:21;5.83;;;2.90;;
78290;SDS011;67543;45.494;9.100;2023-04-15T19:07:46;6.80;;;3.07;;
78290;SDS011;67543;45.494;9.100;2023-04-15T19:10:11;4.90;;;2.20;;
78290;SDS011;67543;45.494;9.100;2023-04-15T19:12:36;5.30;;;2.45;;
78290;SDS011;67543;45.494;9.100;2023-04-15T19:15:04;4.22;;;2.90;;
78290;SDS011;67543;45.494;9.100;2023-04-15T19:17:29;4.85;;;2.78;;
78290;SDS011;67543;45.494;9.100;2023-04-15T19:19:55;4.20;;;2.78;;
